Time;durP1;ratioP1;P1;durP2;ratioP2;P2;SDS_P1;SDS_P2;PMS_P1;PMS_P2;Temp;Humidity;BMP_temperature;BMP_pressure;BME280_temperature;BME280_humidity;BME280_pressure;Samples;Min_cycle;Max_cycle;Signal;HPM_P1;HPM_P2
2022/03/23 00:01:28;;;;;;;44.10;29.02;;;8.80;99.90;;;;;;5036098;28;20033;-54
2022/03/23 00:03:53;;;;;;;44.90;26.92;;;8.70;99.90;;;;;;5038044;28;20394;-52
2022/03/23 00:06:19;;;;;;;45.35;26.83;;;8.70;99.90;;;;;;5033122;28;20042;-50
2022/03/23 00:08:45;;;;;;;47.67;28.33;;;8.50;99.90;;;;;;5034185;28;20029;-54
2022/03/23 00:11:11;;;;;;;48.72;27.45;;;8.50;99.90;;;;;;5033084;28;20048;-53
2022/03/23 00:13:36;;;;;;;46.40;26.90;;;8.40;99.90;;;;;;5033638;28;20413;-56
2022/03/23 00:16:04;;;;;;;48.55;27.63;;;8.30;99.90;;;;;;5034041;28;20416;-50
2022/03/23 00:18:29;;;;;;;41.50;27.10;;;8.30;99.90;;;;;;5033737;28;20414;-51
2022/03/23 00:20:55;;;;;;;43.03;26.73;;;8.20;99.90;;;;;;5039084;28;20034;-53
2022/03/23 00:23:21;;;;;;;43.15;25.42;;;8.20;99.90;;;;;;5036948;28;20068;-54
2022/03/23 00:25:47;;;;;;;44.92;25.85;;;8.10;99.90;;;;;;5033300;28;20484;-53
2022/03/23 00:28:13;;;;;;;44.28;26.15;;;8.10;99.90;;;;;;5033289;28;20098;-56
2022/03/23 00:30:39;;;;;;;37.75;24.70;;;8.10;99.90;;;;;;5033658;28;20092;-56
2022/03/23 00:33:05;;;;;;;42.97;25.33;;;8.10;99.90;;;;;;5033578;28;20116;-53
2022/03/23 00:35:31;;;;;;;45.55;25.00;;;8.00;99.90;;;;;;5032673;28;20714;-54
2022/03/23 00:37:58;;;;;;;36.50;23.63;;;8.00;99.90;;;;;;5040299;28;20452;-57
2022/03/23 00:40:24;;;;;;;43.83;26.58;;;7.90;99.90;;;;;;5040606;28;20055;-56
2022/03/23 00:42:50;;;;;;;41.72;24.65;;;7.90;99.90;;;;;;5028759;28;20050;-55
2022/03/23 00:45:17;;;;;;;42.90;25.77;;;7.80;99.90;;;;;;5052477;28;20413;-51
2022/03/23 00:47:43;;;;;;;43.35;26.70;;;7.80;99.90;;;;;;5036297;28;20041;-57
2022/03/23 00:50:09;;;;;;;44.10;27.20;;;7.80;99.90;;;;;;5033169;28;20114;-53
2022/03/23 00:52:36;;;;;;;43.88;25.05;;;7.70;99.90;;;;;;5033151;28;20038;-53
2022/03/23 00:55:02;;;;;;;44.17;25.73;;;7.70;99.90;;;;;;5031578;28;20041;-54
2022/03/23 00:57:28;;;;;;;43.42;27.02;;;7.70;99.90;;;;;;5033068;28;20044;-53
2022/03/23 00:59:53;;;;;;;46.28;27.45;;;7.70;99.90;;;;;;5033337;28;20025;-54
2022/03/23 01:02:19;;;;;;;40.47;25.23;;;7.60;99.90;;;;;;5032517;28;20037;-54
2022/03/23 01:04:44;;;;;;;43.00;26.52;;;7.60;99.90;;;;;;5035694;28;20061;-54
2022/03/23 01:07:10;;;;;;;46.20;27.30;;;7.60;99.90;;;;;;5029265;28;20129;-56
2022/03/23 01:09:35;;;;;;;47.83;28.13;;;7.60;99.90;;;;;;5028209;28;20044;-55
2022/03/23 01:12:02;;;;;;;46.53;28.33;;;7.50;99.90;;;;;;5031693;28;20045;-54
2022/03/23 01:14:27;;;;;;;49.53;28.48;;;7.60;99.90;;;;;;5032734;28;20041;-52
2022/03/23 01:16:53;;;;;;;51.90;28.13;;;7.60;99.90;;;;;;5032429;28;20060;-54
2022/03/23 01:19:25;;;;;;;51.53;29.27;;;7.50;99.90;;;;;;5032630;28;20112;-54
2022/03/23 01:21:51;;;;;;;45.75;27.50;;;7.60;99.90;;;;;;5032319;28;20044;-53
2022/03/23 01:24:17;;;;;;;50.47;29.50;;;7.70;99.90;;;;;;5032713;28;20034;-53
2022/03/23 01:26:43;;;;;;;52.85;30.38;;;7.70;99.90;;;;;;5032374;28;20044;-54
2022/03/23 01:29:08;;;;;;;51.20;28.27;;;7.80;99.90;;;;;;5032332;28;20033;-54
2022/03/23 01:31:34;;;;;;;48.00;29.05;;;7.80;99.90;;;;;;5032480;28;20037;-54
2022/03/23 01:34:00;;;;;;;49.55;28.10;;;7.80;99.90;;;;;;5032490;28;20060;-54
2022/03/23 01:36:30;;;;;;;52.17;28.85;;;7.80;99.90;;;;;;5031280;28;20064;-54
2022/03/23 01:38:57;;;;;;;48.85;28.35;;;7.80;99.90;;;;;;5032692;28;20494;-55
2022/03/23 01:41:23;;;;;;;41.70;26.58;;;7.80;99.90;;;;;;5043264;28;20037;-53
2022/03/23 01:43:49;;;;;;;46.00;27.98;;;7.70;99.90;;;;;;5032071;28;20034;-55
2022/03/23 01:46:16;;;;;;;46.38;27.88;;;7.60;99.90;;;;;;5029899;28;20468;-54
2022/03/23 01:48:43;;;;;;;49.15;26.83;;;7.50;99.90;;;;;;5031974;28;20076;-52
2022/03/23 01:51:08;;;;;;;45.65;27.50;;;7.50;99.90;;;;;;5032353;28;20033;-53
2022/03/23 01:53:34;;;;;;;42.60;26.20;;;7.40;99.90;;;;;;5031759;28;20068;-53
2022/03/23 01:55:59;;;;;;;44.65;26.75;;;7.40;99.90;;;;;;5031723;28;20041;-54
2022/03/23 01:58:25;;;;;;;45.10;25.58;;;7.30;99.90;;;;;;5032055;28;20049;-52
2022/03/23 02:00:51;;;;;;;44.10;26.77;;;7.20;99.90;;;;;;5031178;28;20073;-53
2022/03/23 02:03:17;;;;;;;43.85;25.02;;;7.20;99.90;;;;;;5031933;28;20067;-54
2022/03/23 02:05:42;;;;;;;43.90;25.60;;;7.10;99.90;;;;;;5031805;28;20037;-53
2022/03/23 02:08:09;;;;;;;45.22;27.05;;;7.10;99.90;;;;;;5031817;28;20408;-55
2022/03/23 02:10:35;;;;;;;51.08;26.70;;;7.00;99.90;;;;;;5031745;28;20486;-55
2022/03/23 02:13:00;;;;;;;49.03;27.85;;;7.00;99.90;;;;;;5031688;28;20099;-53
2022/03/23 02:15:28;;;;;;;44.92;27.42;;;6.90;99.90;;;;;;5031192;28;20037;-56
2022/03/23 02:17:54;;;;;;;44.80;25.65;;;6.80;99.90;;;;;;5031431;28;20040;-53
2022/03/23 02:20:20;;;;;;;43.92;26.38;;;6.80;99.90;;;;;;5046891;28;20094;-54
2022/03/23 02:22:46;;;;;;;44.72;26.25;;;6.70;99.90;;;;;;5031608;28;20041;-53
2022/03/23 02:25:13;;;;;;;47.85;27.48;;;6.80;99.90;;;;;;5031257;28;20045;-54
2022/03/23 02:27:40;;;;;;;45.10;26.50;;;6.70;99.90;;;;;;5031542;28;20049;-55
2022/03/23 02:30:08;;;;;;;48.80;28.55;;;6.70;99.90;;;;;;5031202;28;20138;-54
2022/03/23 02:32:34;;;;;;;48.42;27.42;;;6.70;99.90;;;;;;5031063;28;20042;-54
2022/03/23 02:35:00;;;;;;;44.53;26.75;;;6.70;99.90;;;;;;5031229;28;20034;-54
2022/03/23 02:37:26;;;;;;;44.17;27.02;;;6.60;99.90;;;;;;5031420;28;20033;-52
2022/03/23 02:39:52;;;;;;;46.92;27.52;;;6.60;99.90;;;;;;5031255;28;20532;-55
2022/03/23 02:42:18;;;;;;;48.38;29.10;;;6.50;99.90;;;;;;5031132;28;20041;-54
2022/03/23 02:44:43;;;;;;;45.95;27.73;;;6.50;99.90;;;;;;5031136;28;20041;-53
2022/03/23 02:47:09;;;;;;;47.42;27.83;;;6.40;99.90;;;;;;5030849;28;20044;-54
2022/03/23 02:49:35;;;;;;;45.15;27.00;;;6.40;99.90;;;;;;5031429;28;20033;-54
2022/03/23 02:52:01;;;;;;;49.42;28.23;;;6.40;99.90;;;;;;5030718;28;20053;-55
2022/03/23 03:03:38;;;;;;;50.95;27.92;;;6.40;99.90;;;;;;5030386;28;20076;-55
2022/03/23 03:06:04;;;;;;;53.17;28.13;;;6.30;99.90;;;;;;5030667;28;20037;-58
2022/03/23 03:08:45;;;;;;;50.30;28.45;;;6.40;99.90;;;;;;5031198;28;20099;-58
2022/03/23 03:11:11;;;;;;;51.53;27.98;;;6.40;99.90;;;;;;5030825;28;20055;-55
2022/03/23 03:13:39;;;;;;;50.38;27.10;;;6.40;99.90;;;;;;5030994;28;20117;-54
2022/03/23 03:16:05;;;;;;;48.38;27.80;;;6.40;99.90;;;;;;5030731;28;20551;-54
2022/03/23 03:18:32;;;;;;;47.47;27.45;;;6.50;99.90;;;;;;5029511;28;20042;-55
2022/03/23 03:20:58;;;;;;;50.45;26.08;;;6.50;99.90;;;;;;5031252;28;20073;-54
2022/03/23 03:23:23;;;;;;;48.22;27.00;;;6.40;99.90;;;;;;5030875;28;20073;-55
2022/03/23 03:25:49;;;;;;;48.00;27.77;;;6.40;99.90;;;;;;5030941;28;20076;-55
2022/03/23 03:28:15;;;;;;;49.92;26.67;;;6.40;99.90;;;;;;5030325;28;20038;-56
2022/03/23 03:30:40;;;;;;;45.50;27.45;;;6.40;99.90;;;;;;5029199;28;20037;-54
2022/03/23 03:33:06;;;;;;;45.33;26.00;;;6.40;99.90;;;;;;5030749;28;20406;-54
2022/03/23 03:35:31;;;;;;;45.15;25.65;;;6.40;99.90;;;;;;5030630;28;20547;-55
2022/03/23 03:37:57;;;;;;;48.05;26.85;;;6.40;99.90;;;;;;5030212;28;20038;-55
2022/03/23 03:40:22;;;;;;;42.15;26.13;;;6.30;99.90;;;;;;5030937;28;20071;-55
2022/03/23 03:42:48;;;;;;;41.83;24.38;;;6.20;99.90;;;;;;5030468;28;20441;-53
2022/03/23 03:45:13;;;;;;;42.33;24.65;;;6.20;99.90;;;;;;5031016;28;20498;-55
2022/03/23 03:47:39;;;;;;;47.13;25.83;;;6.20;99.90;;;;;;5030038;28;20042;-54
2022/03/23 03:50:05;;;;;;;42.70;24.73;;;6.20;99.90;;;;;;5030794;28;20034;-55
2022/03/23 03:52:30;;;;;;;43.80;25.48;;;6.10;99.90;;;;;;5030329;28;20052;-52
2022/03/23 03:54:56;;;;;;;44.75;25.48;;;6.10;99.90;;;;;;5030530;28;20049;-54
2022/03/23 03:57:21;;;;;;;44.88;26.17;;;6.00;99.90;;;;;;5030405;28;20409;-55
2022/03/23 03:59:47;;;;;;;51.45;26.33;;;6.00;99.90;;;;;;5033062;28;20037;-56
2022/03/23 04:02:14;;;;;;;48.47;25.50;;;5.90;99.90;;;;;;5034098;28;20041;-53
2022/03/23 04:04:39;;;;;;;45.33;24.90;;;5.90;99.90;;;;;;5034466;28;20437;-55
2022/03/23 04:07:05;;;;;;;45.85;25.25;;;5.90;99.90;;;;;;5033641;28;20071;-55
2022/03/23 04:09:38;;;;;;;48.80;26.55;;;5.90;99.90;;;;;;5046597;28;20068;-55
2022/03/23 04:12:04;;;;;;;51.65;26.25;;;5.80;99.90;;;;;;5032569;28;20116;-56
2022/03/23 04:14:29;;;;;;;45.80;25.45;;;5.80;99.90;;;;;;5034238;28;20045;-55
2022/03/23 04:16:55;;;;;;;42.30;25.77;;;5.90;99.90;;;;;;5033857;28;20089;-56
2022/03/23 04:19:21;;;;;;;47.20;26.65;;;5.90;99.90;;;;;;5016576;28;20071;-56
2022/03/23 04:21:46;;;;;;;43.67;26.20;;;5.80;99.90;;;;;;5031552;28;20116;-56
2022/03/23 04:24:12;;;;;;;51.15;27.73;;;5.80;99.90;;;;;;5033700;28;20033;-56
2022/03/23 04:26:38;;;;;;;47.47;27.25;;;5.70;99.90;;;;;;5033817;28;20064;-56
2022/03/23 04:29:03;;;;;;;48.88;28.48;;;5.70;99.90;;;;;;5031848;28;20045;-56
2022/03/23 04:31:29;;;;;;;47.33;25.95;;;5.70;99.90;;;;;;5033256;28;20417;-57
2022/03/23 04:33:54;;;;;;;48.35;26.65;;;5.70;99.90;;;;;;5047109;28;20195;-56
2022/03/23 04:36:20;;;;;;;50.70;28.00;;;5.70;99.90;;;;;;5033272;28;20037;-56
2022/03/23 04:38:46;;;;;;;51.17;27.58;;;5.70;99.90;;;;;;5033787;28;20039;-56
2022/03/23 04:41:11;;;;;;;50.53;28.15;;;5.70;99.90;;;;;;5033771;28;20034;-56
2022/03/23 04:43:38;;;;;;;52.55;28.45;;;5.80;99.90;;;;;;5040452;28;20124;-56
2022/03/23 04:46:05;;;;;;;49.63;28.35;;;5.80;99.90;;;;;;5041804;28;20046;-56
2022/03/23 04:48:31;;;;;;;54.03;28.38;;;5.90;99.90;;;;;;5034283;28;20269;-57
2022/03/23 04:50:56;;;;;;;54.05;27.42;;;5.90;99.90;;;;;;5032859;28;20401;-56
2022/03/23 04:53:22;;;;;;;51.83;27.50;;;5.90;99.90;;;;;;5032983;28;20124;-56
2022/03/23 04:55:48;;;;;;;46.85;27.83;;;5.90;99.90;;;;;;5035621;28;20044;-56
2022/03/23 04:58:14;;;;;;;52.90;28.10;;;5.90;99.90;;;;;;5033621;28;20034;-56
2022/03/23 05:00:40;;;;;;;50.83;28.35;;;5.90;99.90;;;;;;5046747;28;20041;-57
2022/03/23 05:03:05;;;;;;;50.65;30.05;;;5.90;99.90;;;;;;5030465;28;20045;-57
2022/03/23 05:05:31;;;;;;;52.67;30.15;;;5.90;99.90;;;;;;5036219;28;20532;-56
2022/03/23 05:07:56;;;;;;;54.75;29.13;;;5.90;99.90;;;;;;5029092;28;20042;-56
2022/03/23 05:10:22;;;;;;;54.65;29.05;;;5.90;99.90;;;;;;5032157;28;20038;-56
2022/03/23 05:12:48;;;;;;;51.45;30.10;;;5.90;99.90;;;;;;5036557;28;20629;-56
2022/03/23 05:15:14;;;;;;;52.72;30.20;;;5.90;99.90;;;;;;5038126;28;20033;-56
2022/03/23 05:17:41;;;;;;;53.60;29.55;;;5.90;99.90;;;;;;5033172;28;20033;-56
2022/03/23 05:20:09;;;;;;;49.15;29.08;;;5.90;99.90;;;;;;5032999;28;20048;-57
2022/03/23 05:22:36;;;;;;;50.42;29.00;;;5.90;99.90;;;;;;5032831;28;20049;-57
2022/03/23 05:25:03;;;;;;;49.60;28.80;;;5.90;99.90;;;;;;5027510;28;20425;-57
2022/03/23 05:27:32;;;;;;;53.20;28.48;;;5.90;99.90;;;;;;5037959;28;20041;-56
2022/03/23 05:29:58;;;;;;;53.58;28.90;;;5.90;99.90;;;;;;5030222;28;20048;-56
2022/03/23 05:32:23;;;;;;;52.30;30.48;;;5.90;99.90;;;;;;5037983;28;20045;-56
2022/03/23 05:34:50;;;;;;;58.70;31.23;;;5.80;99.90;;;;;;5032945;28;20083;-56
2022/03/23 05:37:19;;;;;;;52.15;29.90;;;5.80;99.90;;;;;;5032440;28;20038;-55
2022/03/23 05:39:45;;;;;;;49.00;28.23;;;5.80;99.90;;;;;;5032296;28;20033;-56
2022/03/23 05:42:11;;;;;;;56.15;30.13;;;5.80;99.90;;;;;;5031975;28;20049;-56
2022/03/23 05:44:37;;;;;;;54.63;31.40;;;5.80;99.90;;;;;;5033930;28;20045;-56
2022/03/23 05:47:04;;;;;;;56.83;30.60;;;5.70;99.90;;;;;;5032969;28;20091;-55
2022/03/23 05:49:29;;;;;;;53.08;30.50;;;5.70;99.90;;;;;;5033951;28;20402;-56
2022/03/23 05:51:55;;;;;;;53.60;30.00;;;5.70;99.90;;;;;;5035477;28;20049;-55
2022/03/23 05:54:22;;;;;;;56.28;29.80;;;5.70;99.90;;;;;;5031827;28;20045;-55
2022/03/23 05:56:48;;;;;;;48.97;29.52;;;5.70;99.90;;;;;;5038388;28;20128;-56
2022/03/23 05:59:14;;;;;;;50.20;27.83;;;5.60;99.90;;;;;;5035343;28;20121;-56
2022/03/23 06:01:39;;;;;;;52.95;29.42;;;5.60;99.90;;;;;;5035324;28;20041;-56
2022/03/23 06:04:05;;;;;;;50.33;28.38;;;5.70;99.90;;;;;;5035275;28;20045;-56
2022/03/23 06:06:31;;;;;;;49.90;27.30;;;5.70;99.90;;;;;;5032548;28;20053;-56
2022/03/23 06:08:56;;;;;;;45.45;27.20;;;5.70;99.90;;;;;;5028628;28;20037;-56
2022/03/23 06:11:22;;;;;;;46.58;26.63;;;5.70;99.90;;;;;;5029367;28;20051;-56
2022/03/23 06:13:48;;;;;;;50.83;28.73;;;5.70;99.90;;;;;;5034262;28;20094;-55
2022/03/23 06:16:14;;;;;;;49.65;27.90;;;5.60;99.90;;;;;;5022664;28;20084;-55
2022/03/23 06:18:40;;;;;;;56.70;30.02;;;5.70;99.90;;;;;;5019877;28;20498;-55
2022/03/23 06:21:06;;;;;;;46.65;27.70;;;5.70;99.90;;;;;;5025806;28;20045;-56
2022/03/23 06:23:32;;;;;;;55.65;28.77;;;5.90;99.90;;;;;;5025863;28;20064;-56
2022/03/23 06:25:57;;;;;;;48.00;27.38;;;5.90;99.90;;;;;;5030459;28;20029;-56
2022/03/23 06:28:23;;;;;;;48.45;27.88;;;5.90;99.90;;;;;;5026496;28;20041;-55
2022/03/23 06:30:50;;;;;;;51.75;27.90;;;5.90;99.90;;;;;;5026959;28;20053;-56
2022/03/23 06:33:16;;;;;;;49.42;28.48;;;6.00;99.90;;;;;;5031289;28;20079;-56
2022/03/23 06:35:42;;;;;;;48.53;29.67;;;6.10;99.90;;;;;;5030735;28;20038;-55
2022/03/23 06:38:07;;;;;;;51.60;28.67;;;6.30;99.90;;;;;;5031115;28;20045;-56
2022/03/23 06:40:34;;;;;;;49.30;29.13;;;6.50;99.90;;;;;;5031707;28;20046;-56
2022/03/23 06:42:59;;;;;;;48.30;29.48;;;6.60;99.90;;;;;;5030875;28;20168;-56
2022/03/23 06:45:25;;;;;;;55.88;30.20;;;6.70;99.90;;;;;;5024968;28;20499;-56
2022/03/23 06:47:51;;;;;;;54.15;29.95;;;6.80;99.90;;;;;;5013118;28;20502;-56
2022/03/23 06:50:16;;;;;;;57.88;30.15;;;6.90;99.90;;;;;;5033228;28;20041;-55
2022/03/23 06:52:42;;;;;;;53.80;30.63;;;7.00;99.90;;;;;;5024428;28;20037;-54
2022/03/23 06:55:09;;;;;;;53.95;28.70;;;7.10;99.90;;;;;;5034420;28;20111;-56
2022/03/23 06:57:34;;;;;;;57.45;30.95;;;7.30;99.90;;;;;;5031292;28;20041;-56
2022/03/23 07:00:01;;;;;;;55.00;27.98;;;7.40;99.90;;;;;;5029784;28;20048;-56
2022/03/23 07:02:26;;;;;;;50.25;29.35;;;7.60;99.90;;;;;;5023291;28;20041;-56
2022/03/23 07:04:52;;;;;;;52.08;29.17;;;7.70;99.90;;;;;;5031147;28;20083;-56
2022/03/23 07:07:18;;;;;;;49.72;30.08;;;7.80;99.90;;;;;;5032135;28;20040;-55
2022/03/23 07:09:44;;;;;;;54.65;29.88;;;8.00;99.90;;;;;;5026764;28;20120;-55
2022/03/23 07:12:11;;;;;;;51.65;28.40;;;8.10;99.90;;;;;;5027236;28;20453;-56
2022/03/23 07:14:39;;;;;;;52.05;30.20;;;8.30;99.90;;;;;;5028609;28;20524;-56
2022/03/23 07:17:06;;;;;;;53.85;30.88;;;8.40;99.90;;;;;;5026333;28;20033;-57
2022/03/23 07:19:32;;;;;;;53.80;29.90;;;8.40;99.90;;;;;;5024518;28;20041;-55
2022/03/23 07:21:57;;;;;;;51.90;31.23;;;8.60;99.90;;;;;;5027738;28;20538;-56
2022/03/23 07:24:23;;;;;;;53.55;31.08;;;8.60;99.90;;;;;;5026036;28;20052;-56
2022/03/23 07:26:49;;;;;;;54.88;30.90;;;8.70;99.90;;;;;;5027389;28;20034;-56
2022/03/23 07:29:15;;;;;;;55.35;30.60;;;8.70;99.90;;;;;;5029565;28;20036;-57
2022/03/23 07:31:41;;;;;;;58.22;30.50;;;8.80;99.90;;;;;;5026302;28;20559;-55
2022/03/23 07:34:07;;;;;;;47.90;28.90;;;8.90;99.90;;;;;;5027076;28;20045;-55
2022/03/23 07:36:33;;;;;;;56.63;30.38;;;9.00;99.90;;;;;;5025944;28;20038;-57
2022/03/23 07:38:59;;;;;;;51.22;29.80;;;9.10;99.90;;;;;;5023546;28;20131;-56
2022/03/23 07:41:25;;;;;;;52.45;31.27;;;9.20;99.90;;;;;;5031424;28;20502;-56
2022/03/23 07:43:50;;;;;;;53.63;31.10;;;9.40;99.90;;;;;;5028335;28;20060;-55
2022/03/23 07:46:17;;;;;;;50.03;31.05;;;9.50;99.90;;;;;;5030063;28;20076;-55
2022/03/23 07:48:43;;;;;;;49.92;30.98;;;9.70;99.90;;;;;;5022482;28;20057;-55
2022/03/23 07:51:09;;;;;;;52.67;30.38;;;9.90;99.90;;;;;;5030673;28;20494;-55
2022/03/23 07:53:34;;;;;;;47.75;30.30;;;10.00;99.90;;;;;;5027247;28;20029;-55
2022/03/23 07:56:00;;;;;;;52.90;31.10;;;10.20;99.90;;;;;;5035636;28;20036;-55
2022/03/23 07:58:25;;;;;;;51.90;28.45;;;10.40;99.90;;;;;;5034058;28;20041;-54
2022/03/23 08:00:51;;;;;;;45.90;28.70;;;10.50;99.90;;;;;;5026189;28;20045;-54
2022/03/23 08:03:17;;;;;;;51.78;29.58;;;10.70;99.90;;;;;;5034126;28;20037;-51
2022/03/23 08:05:43;;;;;;;44.80;28.30;;;10.80;99.90;;;;;;5021702;28;20518;-53
2022/03/23 08:08:10;;;;;;;47.15;29.05;;;11.00;98.70;;;;;;5028765;28;20034;-55
2022/03/23 08:10:41;;;;;;;44.22;27.65;;;11.20;98.60;;;;;;5024323;28;20072;-56
2022/03/23 08:13:09;;;;;;;45.95;27.17;;;11.30;97.70;;;;;;5027665;28;20087;-53
2022/03/23 08:15:36;;;;;;;45.72;26.90;;;11.50;97.70;;;;;;5026374;28;20436;-54
2022/03/23 08:18:01;;;;;;;42.33;27.40;;;11.70;96.80;;;;;;5026265;28;20099;-52
2022/03/23 08:20:33;;;;;;;43.50;28.80;;;11.80;96.30;;;;;;5032305;28;20034;-52
2022/03/23 08:23:03;;;;;;;45.03;28.73;;;11.90;96.20;;;;;;5030919;28;20069;-54
2022/03/23 08:25:29;;;;;;;45.28;27.35;;;12.10;96.60;;;;;;5034354;28;20461;-54
2022/03/23 08:27:55;;;;;;;37.47;25.63;;;12.20;95.50;;;;;;5033231;28;20121;-55
2022/03/23 08:30:21;;;;;;;41.70;27.05;;;12.40;94.30;;;;;;5031719;28;20116;-55
2022/03/23 08:32:47;;;;;;;41.25;26.05;;;12.50;92.90;;;;;;5044846;28;20475;-56
2022/03/23 08:35:12;;;;;;;40.45;25.75;;;12.60;90.50;;;;;;5034383;28;20049;-56
2022/03/23 08:37:41;;;;;;;38.17;24.88;;;12.80;89.50;;;;;;5032852;28;20046;-55
2022/03/23 08:40:07;;;;;;;34.88;24.55;;;12.90;82.50;;;;;;5034294;28;20041;-56
2022/03/23 08:42:33;;;;;;;36.45;23.65;;;13.00;80.70;;;;;;5033747;28;20042;-55
2022/03/23 08:44:58;;;;;;;35.70;24.25;;;13.10;76.40;;;;;;5033854;28;20037;-55
2022/03/23 08:47:24;;;;;;;37.92;24.42;;;13.20;75.20;;;;;;5033956;28;20034;-56
2022/03/23 08:49:50;;;;;;;34.58;23.15;;;13.30;75.00;;;;;;5034021;28;20116;-55
2022/03/23 08:52:16;;;;;;;33.58;20.88;;;13.30;73.60;;;;;;5033005;28;20053;-56
2022/03/23 08:54:41;;;;;;;32.22;21.52;;;13.50;69.20;;;;;;5033843;28;20049;-55
2022/03/23 08:57:07;;;;;;;28.73;19.80;;;13.50;69.60;;;;;;5033549;28;20033;-54
2022/03/23 08:59:33;;;;;;;28.13;20.23;;;13.60;65.50;;;;;;5033451;28;20052;-56
2022/03/23 09:01:58;;;;;;;27.33;19.50;;;13.70;65.00;;;;;;5033572;28;20040;-55
2022/03/23 09:04:54;;;;;;;32.10;20.85;;;13.80;62.70;;;;;;5041335;28;20032;-54
2022/03/23 09:07:20;;;;;;;30.17;19.20;;;13.90;61.60;;;;;;5032703;28;20049;-54
2022/03/23 09:09:46;;;;;;;28.80;18.88;;;14.00;60.20;;;;;;5033728;28;20041;-54
2022/03/23 09:12:11;;;;;;;27.27;17.98;;;14.20;57.90;;;;;;5033036;28;20468;-53
2022/03/23 09:14:37;;;;;;;30.98;20.25;;;14.30;56.90;;;;;;5033526;28;20449;-56
2022/03/23 09:17:03;;;;;;;28.70;19.42;;;14.30;56.20;;;;;;5033103;28;20033;-52
2022/03/23 09:19:29;;;;;;;26.98;19.25;;;14.40;56.70;;;;;;5032739;28;20117;-55
2022/03/23 09:21:55;;;;;;;27.63;18.95;;;14.50;57.10;;;;;;5032818;28;20057;-54
2022/03/23 09:24:20;;;;;;;33.20;20.67;;;14.60;55.80;;;;;;5032917;28;20165;-54
2022/03/23 09:26:47;;;;;;;32.42;21.00;;;14.60;56.90;;;;;;5032515;28;20071;-54
2022/03/23 09:29:12;;;;;;;26.58;19.42;;;14.70;57.90;;;;;;5032795;28;20087;-53
2022/03/23 09:31:38;;;;;;;28.17;20.25;;;14.70;56.30;;;;;;5032971;28;20116;-54
2022/03/23 09:34:05;;;;;;;30.17;19.60;;;14.80;56.00;;;;;;5032477;28;20041;-54
2022/03/23 09:39:16;;;;;;;24.42;17.52;;;15.00;54.10;;;;;;5012789;28;20049;-55
2022/03/23 09:41:44;;;;;;;25.73;18.63;;;15.00;53.00;;;;;;5012852;28;20038;-55
2022/03/23 09:44:10;;;;;;;24.30;17.38;;;15.10;52.10;;;;;;5012914;28;20402;-54
2022/03/23 09:46:35;;;;;;;25.95;17.35;;;15.20;52.60;;;;;;5021663;28;20095;-53
2022/03/23 09:49:02;;;;;;;27.48;16.88;;;15.30;49.00;;;;;;5031270;28;20132;-54
2022/03/23 09:51:31;;;;;;;21.75;16.27;;;15.30;49.60;;;;;;5031916;28;20041;-54
2022/03/23 09:53:58;;;;;;;22.73;17.38;;;15.40;48.20;;;;;;5031247;28;20087;-54
2022/03/23 09:56:23;;;;;;;23.45;16.80;;;15.40;48.40;;;;;;5030991;28;20038;-55
2022/03/23 09:58:49;;;;;;;25.13;17.30;;;15.40;47.10;;;;;;5032862;28;20056;-56
2022/03/23 10:01:30;;;;;;;25.13;17.90;;;15.40;46.80;;;;;;5032874;28;20043;-55
2022/03/23 10:04:34;;;;;;;23.42;17.50;;;15.50;48.30;;;;;;5032226;28;20571;-54
2022/03/23 10:07:18;;;;;;;27.75;17.23;;;15.60;48.50;;;;;;5031866;28;20136;-55
2022/03/23 10:10:07;;;;;;;23.15;17.23;;;15.70;46.90;;;;;;5043248;28;20037;-56
2022/03/23 10:13:26;;;;;;;29.08;17.65;;;15.80;46.30;;;;;;5031767;28;20133;-56
2022/03/23 10:16:40;;;;;;;25.40;17.98;;;15.90;46.90;;;;;;5031431;28;20033;-56
2022/03/23 10:19:05;;;;;;;23.65;17.38;;;16.00;46.70;;;;;;5032306;28;20037;-56
2022/03/23 10:21:36;;;;;;;24.52;17.55;;;16.00;47.20;;;;;;5030971;28;20512;-56
2022/03/23 10:24:02;;;;;;;24.48;17.33;;;16.00;46.40;;;;;;5049176;28;20404;-56
2022/03/23 10:26:30;;;;;;;26.83;18.15;;;16.10;43.80;;;;;;5032537;28;20041;-56
2022/03/23 10:28:57;;;;;;;23.23;16.90;;;16.10;43.00;;;;;;5031598;28;20071;-58
2022/03/23 10:31:25;;;;;;;22.17;17.00;;;16.20;42.60;;;;;;5034951;28;20060;-57
2022/03/23 10:33:58;;;;;;;25.02;17.48;;;16.20;42.40;;;;;;5031663;28;20045;-55
2022/03/23 10:36:27;;;;;;;22.45;16.20;;;16.20;43.10;;;;;;5026991;28;20388;-57
2022/03/23 10:39:05;;;;;;;23.75;16.80;;;16.30;42.30;;;;;;5031784;28;20048;-56
2022/03/23 10:41:31;;;;;;;24.38;16.38;;;16.30;41.80;;;;;;5019377;28;20056;-56
2022/03/23 10:43:57;;;;;;;22.52;15.70;;;16.40;42.70;;;;;;5015554;28;20123;-55
2022/03/23 10:46:24;;;;;;;25.10;17.13;;;16.40;42.60;;;;;;5023671;28;20187;-55
2022/03/23 10:49:03;;;;;;;24.25;16.85;;;16.50;40.50;;;;;;5024651;28;20445;-55
2022/03/23 10:51:33;;;;;;;26.45;16.08;;;16.50;41.90;;;;;;5028954;28;20529;-56
2022/03/23 10:54:12;;;;;;;23.95;16.92;;;16.60;42.70;;;;;;5028712;28;20083;-56
2022/03/23 10:56:38;;;;;;;22.17;15.43;;;16.60;41.90;;;;;;5034788;28;20037;-55
2022/03/23 10:59:25;;;;;;;22.15;15.98;;;16.80;41.20;;;;;;5024853;28;20081;-54
2022/03/23 11:02:03;;;;;;;25.52;15.90;;;16.90;41.00;;;;;;5016126;28;20172;-55
2022/03/23 11:04:31;;;;;;;22.42;16.60;;;17.00;41.30;;;;;;5011981;28;20073;-56
2022/03/23 11:06:58;;;;;;;21.95;15.23;;;17.00;39.90;;;;;;5021884;28;20038;-56
2022/03/23 11:18:12;;;;;;;24.17;16.42;;;17.10;40.00;;;;;;5055221;28;20044;-56
2022/03/23 11:20:43;;;;;;;22.67;16.23;;;17.20;40.50;;;;;;5039656;28;20091;-56
2022/03/23 11:23:15;;;;;;;24.13;16.77;;;17.10;41.20;;;;;;5038490;28;20052;-56
2022/03/23 11:25:41;;;;;;;25.08;15.82;;;17.20;41.40;;;;;;5044001;28;20037;-53
2022/03/23 11:28:07;;;;;;;27.00;16.17;;;17.10;40.70;;;;;;5043545;28;20040;-54
2022/03/23 11:30:33;;;;;;;29.88;16.02;;;17.20;40.30;;;;;;5042132;28;20044;-54
2022/03/23 11:32:59;;;;;;;23.45;17.17;;;17.30;40.60;;;;;;5042452;28;20033;-54
2022/03/23 11:35:27;;;;;;;27.95;16.08;;;17.30;40.60;;;;;;5026902;28;20095;-54
2022/03/23 11:37:54;;;;;;;26.23;13.95;;;17.30;41.20;;;;;;5040073;28;20037;-54
2022/03/23 11:40:20;;;;;;;28.23;14.25;;;17.30;40.40;;;;;;5032287;28;20035;-54
2022/03/23 11:42:46;;;;;;;24.50;13.88;;;17.40;39.80;;;;;;5040685;28;20124;-53
2022/03/23 11:45:13;;;;;;;23.10;14.60;;;17.40;39.50;;;;;;5042931;28;20103;-55
2022/03/23 11:47:53;;;;;;;21.40;13.75;;;17.50;39.70;;;;;;5037403;28;20056;-54
2022/03/23 11:50:40;;;;;;;24.80;14.48;;;17.60;38.50;;;;;;5041946;28;20040;-54
2022/03/23 11:53:19;;;;;;;23.55;14.13;;;17.60;39.40;;;;;;5045034;28;20092;-54
2022/03/23 11:55:53;;;;;;;29.85;14.23;;;17.60;40.20;;;;;;5043891;28;20111;-54
2022/03/23 11:58:23;;;;;;;28.58;14.48;;;17.60;40.50;;;;;;5032178;28;20030;-54
2022/03/23 12:01:05;;;;;;;28.65;13.52;;;17.70;39.30;;;;;;5047959;28;20048;-54
2022/03/23 12:03:50;;;;;;;24.75;13.15;;;17.70;38.50;;;;;;5041536;28;20064;-54
2022/03/23 12:06:44;;;;;;;23.30;11.50;;;17.80;38.20;;;;;;5034812;28;20133;-53
2022/03/23 12:09:29;;;;;;;28.13;13.90;;;17.70;39.00;;;;;;5029159;28;20237;-54
2022/03/23 12:11:55;;;;;;;22.15;11.82;;;17.90;39.90;;;;;;5022764;28;20390;-52
2022/03/23 12:14:29;;;;;;;23.48;11.85;;;17.90;38.70;;;;;;5017759;28;20042;-51
2022/03/23 12:16:55;;;;;;;24.20;11.77;;;18.00;37.50;;;;;;5035149;28;20568;-53
2022/03/23 12:19:24;;;;;;;20.08;12.40;;;18.00;38.30;;;;;;5042423;28;20060;-54
2022/03/23 12:22:00;;;;;;;22.20;11.32;;;18.00;38.80;;;;;;5030782;28;20034;-51
2022/03/23 12:24:34;;;;;;;24.80;12.60;;;18.00;38.30;;;;;;5038129;28;20042;-51
2022/03/23 12:27:07;;;;;;;23.55;11.75;;;18.00;38.50;;;;;;5052981;28;20048;-54
2022/03/23 12:29:35;;;;;;;;;;;18.00;38.40;;;;;;5041055;28;20044;-53
2022/03/23 12:32:08;;;;;;;23.23;11.98;;;18.00;38.00;;;;;;5037872;28;20028;-53
2022/03/23 12:34:35;;;;;;;24.60;12.13;;;18.00;38.00;;;;;;5054346;28;20112;-52
2022/03/23 12:37:10;;;;;;;28.35;12.88;;;18.00;38.00;;;;;;5054030;28;20063;-53
2022/03/23 12:39:44;;;;;;;23.77;12.25;;;18.00;37.80;;;;;;5029821;28;20037;-53
2022/03/23 12:42:12;;;;;;;24.67;12.80;;;18.00;38.50;;;;;;5033874;28;20033;-54
2022/03/23 12:44:42;;;;;;;27.20;13.30;;;18.10;38.10;;;;;;5032545;28;20548;-53
2022/03/23 12:47:12;;;;;;;22.48;12.52;;;18.00;38.50;;;;;;5015806;28;20040;-54
2022/03/23 12:58:27;;;;;;;24.85;12.57;;;18.10;38.40;;;;;;4996598;28;20104;-54
2022/03/23 13:00:55;;;;;;;21.98;12.15;;;18.10;37.70;;;;;;5032990;28;20041;-53
2022/03/23 13:03:22;;;;;;;25.02;8.43;;;18.00;38.80;;;;;;5031874;28;20099;-53
2022/03/23 13:05:54;;;;;;;25.45;8.15;;;18.20;38.00;;;;;;5033165;28;20429;-52